createdAt,value
2023-04-11T00:00:32.051Z,2.63
2023-04-11T00:03:01.541Z,2.92
2023-04-11T00:05:31.267Z,2.67
2023-04-11T00:07:58.926Z,2.95
2023-04-11T00:10:26.584Z,2.90
2023-04-11T00:12:56.578Z,2.40
2023-04-11T00:15:27.468Z,2.80
2023-04-11T00:17:57.732Z,2.40
2023-04-11T00:20:25.292Z,2.35
2023-04-11T00:22:54.010Z,2.45
2023-04-11T00:25:21.689Z,2.67
2023-04-11T00:27:49.209Z,2.33
2023-04-11T00:30:16.874Z,2.17
2023-04-11T00:32:47.468Z,2.42
2023-04-11T00:35:15.287Z,2.42
2023-04-11T00:37:44.288Z,2.08
2023-04-11T00:40:17.673Z,2.13
2023-04-11T00:42:45.263Z,1.92
2023-04-11T00:45:13.040Z,1.98
2023-04-11T00:47:41.330Z,2.00
2023-04-11T00:50:09.279Z,2.40
2023-04-11T00:52:37.764Z,1.90
2023-04-11T00:55:05.512Z,2.25
2023-04-11T00:57:33.261Z,1.95
2023-04-11T01:00:03.875Z,2.20
2023-04-11T01:02:32.130Z,2.00
2023-04-11T01:05:00.691Z,2.30
2023-04-11T01:07:29.836Z,2.28
2023-04-11T01:09:58.045Z,2.10
2023-04-11T01:12:26.187Z,1.98
2023-04-11T01:14:53.849Z,2.05
2023-04-11T01:17:21.815Z,2.05
2023-04-11T01:19:49.419Z,2.05
2023-04-11T01:22:18.598Z,2.30
2023-04-11T01:24:46.198Z,1.95
2023-04-11T01:27:13.809Z,2.08
2023-04-11T01:29:41.478Z,2.08
2023-04-11T01:32:09.378Z,1.90
2023-04-11T01:34:38.583Z,1.92
2023-04-11T01:37:06.493Z,2.38
2023-04-11T01:39:34.177Z,2.17
2023-04-11T01:42:02.824Z,2.17
2023-04-11T01:44:31.465Z,2.13
2023-04-11T01:46:59.020Z,2.00
2023-04-11T01:49:26.597Z,2.05
2023-04-11T01:51:54.206Z,2.10
2023-04-11T01:54:21.895Z,2.17
2023-04-11T01:56:49.507Z,2.33
2023-04-11T01:59:17.116Z,1.75
2023-04-11T02:01:46.216Z,1.60
2023-04-11T02:04:14.086Z,1.98
2023-04-11T02:06:42.524Z,1.73
2023-04-11T02:09:10.151Z,1.50
2023-04-11T02:11:37.782Z,1.90
2023-04-11T02:14:06.287Z,1.50
2023-04-11T02:16:33.990Z,1.30
2023-04-11T02:19:03.500Z,1.45
2023-04-11T02:21:31.620Z,1.60
2023-04-11T02:24:00.773Z,1.50
2023-04-11T02:26:28.453Z,1.30
2023-04-11T02:28:56.993Z,1.20
2023-04-11T02:31:24.756Z,1.33
2023-04-11T02:33:52.408Z,1.50
2023-04-11T02:36:20.033Z,1.30
2023-04-11T02:38:48.553Z,1.52
2023-04-11T02:41:16.170Z,1.30
2023-04-11T02:43:43.718Z,1.20
2023-04-11T02:46:13.371Z,1.33
2023-04-11T02:48:43.863Z,1.40
2023-04-11T02:51:12.964Z,1.30
2023-04-11T02:53:41.081Z,1.25
2023-04-11T02:56:11.964Z,1.13
2023-04-11T02:58:41.563Z,1.45
2023-04-11T03:01:11.674Z,1.17
2023-04-11T03:03:39.507Z,1.00
2023-04-11T03:06:08.225Z,1.40
2023-04-11T03:08:37.327Z,1.55
2023-04-11T03:11:06.088Z,1.30
2023-04-11T03:13:33.852Z,1.13
2023-04-11T03:16:01.624Z,1.30
2023-04-11T03:18:31.723Z,1.30
2023-04-11T03:21:02.548Z,1.40
2023-04-11T03:23:31.960Z,1.20
2023-04-11T03:26:00.513Z,0.90
2023-04-11T03:28:28.706Z,1.13
2023-04-11T03:30:56.412Z,1.00
2023-04-11T03:33:25.498Z,1.00
2023-04-11T03:35:53.200Z,1.20
2023-04-11T03:38:21.166Z,1.20
2023-04-11T03:40:48.881Z,1.10
2023-04-11T03:43:20.042Z,1.38
2023-04-11T03:45:47.873Z,1.30
2023-04-11T03:48:30.497Z,0.98
2023-04-11T03:51:02.547Z,1.13
2023-04-11T03:53:38.517Z,1.20
2023-04-11T03:56:20.864Z,1.10
2023-04-11T03:58:49.132Z,1.02
2023-04-11T04:01:17.688Z,1.15
2023-04-11T04:03:46.294Z,1.23
2023-04-11T04:06:14.744Z,0.90
2023-04-11T04:08:42.286Z,1.08
2023-04-11T04:11:10.388Z,1.20
2023-04-11T04:13:38.368Z,1.20
2023-04-11T04:16:16.936Z,1.00
2023-04-11T04:18:50.032Z,1.20
2023-04-11T04:21:17.869Z,0.90
2023-04-11T04:23:47.639Z,0.90
2023-04-11T04:26:37.917Z,0.90
2023-04-11T04:29:29.238Z,1.17
2023-04-11T04:31:57.558Z,0.90
2023-04-11T04:34:37.957Z,1.15
2023-04-11T04:37:05.587Z,1.02
2023-04-11T04:39:41.938Z,1.13
2023-04-11T04:42:13.572Z,1.17
2023-04-11T04:44:41.356Z,1.05
2023-04-11T04:47:17.571Z,1.40
2023-04-11T04:49:45.920Z,1.20
2023-04-11T04:52:14.442Z,1.10
2023-04-11T04:54:45.722Z,1.13
2023-04-11T04:57:13.493Z,1.23
2023-04-11T04:59:41.284Z,1.00
2023-04-11T05:02:13.234Z,1.30
2023-04-11T05:04:42.437Z,1.40
2023-04-11T05:07:13.761Z,1.30
2023-04-11T05:09:41.626Z,1.50
2023-04-11T05:12:26.274Z,1.05
2023-04-11T05:14:57.533Z,1.17
2023-04-11T05:17:29.418Z,1.48
2023-04-11T05:19:57.665Z,1.60
2023-04-11T05:22:26.758Z,1.42
2023-04-11T05:24:57.021Z,1.75
2023-04-11T05:27:24.547Z,1.65
2023-04-11T05:29:54.127Z,1.50
2023-04-11T05:32:22.011Z,1.40
2023-04-11T05:34:54.736Z,1.30
2023-04-11T05:37:32.220Z,1.60
2023-04-11T05:40:00.079Z,1.60
2023-04-11T05:42:27.729Z,1.45
2023-04-11T05:44:55.261Z,1.35
2023-04-11T05:47:23.980Z,1.20
2023-04-11T05:49:51.569Z,1.35
2023-04-11T05:52:19.121Z,1.23
2023-04-11T05:54:46.773Z,1.30
2023-04-11T05:57:14.368Z,1.25
2023-04-11T05:59:41.903Z,1.30
2023-04-11T06:02:09.604Z,0.98
2023-04-11T06:04:37.460Z,1.15
2023-04-11T06:07:05.488Z,1.30
2023-04-11T06:09:34.210Z,1.13
2023-04-11T06:12:01.882Z,1.30
2023-04-11T06:14:29.685Z,1.40
2023-04-11T06:16:57.225Z,1.40
2023-04-11T06:19:24.835Z,1.42
2023-04-11T06:21:53.647Z,1.20
2023-04-11T06:24:35.022Z,1.60
2023-04-11T06:27:03.452Z,1.23
2023-04-11T06:29:31.091Z,1.40
2023-04-11T06:31:59.634Z,1.70
2023-04-11T06:34:27.310Z,1.80
2023-04-11T06:36:54.923Z,1.65
2023-04-11T06:39:22.792Z,1.40
2023-04-11T06:41:50.644Z,1.40
2023-04-11T06:44:25.774Z,1.50
2023-04-11T06:46:53.500Z,1.20
2023-04-11T06:49:21.204Z,1.30
2023-04-11T06:51:50.141Z,1.40
2023-04-11T06:54:18.589Z,2.10
2023-04-11T06:56:47.449Z,1.60
2023-04-11T06:59:14.969Z,1.52
2023-04-11T07:01:42.609Z,1.42
2023-04-11T07:04:10.296Z,1.80
2023-04-11T07:06:38.007Z,2.08
2023-04-11T07:09:05.914Z,1.70
2023-04-11T07:11:33.830Z,1.63
2023-04-11T07:14:01.668Z,1.20
2023-04-11T07:16:29.556Z,1.60
2023-04-11T07:18:57.451Z,1.20
2023-04-11T07:21:25.036Z,1.40
2023-04-11T07:23:53.214Z,1.13
2023-04-11T07:26:23.532Z,1.25
2023-04-11T07:28:51.166Z,1.23
2023-04-11T07:31:21.417Z,1.65
2023-04-11T07:33:49.252Z,1.05
2023-04-11T07:36:16.991Z,1.25
2023-04-11T07:38:44.585Z,1.10
2023-04-11T07:41:12.164Z,1.27
2023-04-11T07:43:40.585Z,1.10
2023-04-11T07:46:08.385Z,1.08
2023-04-11T07:48:36.090Z,0.98
2023-04-11T07:51:03.650Z,1.13
2023-04-11T07:53:33.550Z,0.90
2023-04-11T07:56:01.425Z,1.30
2023-04-11T07:58:32.188Z,1.23
2023-04-11T08:00:59.793Z,1.50
2023-04-11T08:03:28.376Z,1.08
2023-04-11T08:05:56.148Z,1.20
2023-04-11T08:08:24.022Z,1.40
2023-04-11T08:10:52.259Z,1.00
2023-04-11T08:13:20.138Z,0.93
2023-04-11T08:15:47.665Z,1.15
2023-04-11T08:18:16.270Z,0.70
2023-04-11T08:20:43.843Z,0.88
2023-04-11T08:23:11.444Z,0.80
2023-04-11T08:25:39.136Z,0.82
2023-04-11T08:28:09.970Z,0.90
2023-04-11T08:30:37.640Z,0.77
2023-04-11T08:33:05.627Z,0.90
2023-04-11T08:35:33.695Z,0.80
2023-04-11T08:38:01.625Z,0.80
2023-04-11T08:40:29.347Z,0.80
2023-04-11T08:43:00.663Z,0.70
2023-04-11T08:45:28.602Z,0.90
2023-04-11T08:47:56.235Z,0.70
2023-04-11T08:50:23.865Z,0.90
2023-04-11T08:52:52.444Z,0.93
2023-04-11T08:55:20.312Z,0.50
2023-04-11T08:57:47.979Z,0.50
2023-04-11T09:00:18.803Z,0.63
2023-04-11T09:02:56.669Z,0.70
2023-04-11T09:05:31.969Z,0.50
2023-04-11T09:08:03.330Z,0.52
2023-04-11T09:10:31.542Z,0.70
2023-04-11T09:12:59.434Z,0.88
2023-04-11T09:15:28.272Z,0.50
2023-04-11T09:17:59.696Z,0.98
2023-04-11T09:20:31.288Z,0.70
2023-04-11T09:22:59.618Z,0.63
2023-04-11T09:25:27.339Z,1.00
2023-04-11T09:28:15.715Z,0.80
2023-04-11T09:30:51.039Z,0.60
2023-04-11T09:33:23.021Z,0.63
2023-04-11T09:38:34.367Z,0.80
2023-04-11T09:41:02.990Z,0.77
2023-04-11T09:43:59.828Z,0.57
2023-04-11T09:46:27.471Z,0.50
2023-04-11T09:48:56.396Z,0.70
2023-04-11T09:51:36.428Z,0.50
2023-04-11T09:54:05.519Z,0.80
2023-04-11T09:56:34.695Z,0.80
2023-04-11T09:59:03.642Z,0.70
2023-04-11T10:01:31.328Z,0.55
2023-04-11T10:04:00.911Z,0.70
2023-04-11T10:06:31.276Z,0.73
2023-04-11T10:09:12.229Z,0.80
2023-04-11T10:11:46.502Z,0.90
2023-04-11T10:14:41.563Z,1.10
2023-04-11T10:17:14.113Z,0.77
2023-04-11T10:19:42.779Z,1.55
2023-04-11T10:22:11.196Z,0.70
2023-04-11T10:24:38.849Z,0.80
2023-04-11T10:27:07.626Z,0.85
2023-04-11T10:29:49.976Z,1.08
2023-04-11T10:32:26.012Z,1.02
2023-04-11T10:34:53.631Z,0.70
2023-04-11T10:37:33.330Z,0.93
2023-04-11T10:40:01.237Z,0.90
2023-04-11T10:42:36.346Z,0.80
2023-04-11T10:45:19.837Z,0.70
2023-04-11T10:48:07.818Z,1.20
2023-04-11T10:50:37.605Z,1.10
2023-04-11T10:53:09.653Z,0.70
2023-04-11T10:55:47.824Z,1.00
2023-04-11T10:58:16.871Z,0.63
2023-04-11T11:00:50.074Z,1.10
2023-04-11T11:03:18.227Z,0.70
2023-04-11T11:05:47.924Z,0.70
2023-04-11T11:08:16.975Z,1.00
2023-04-11T11:10:50.367Z,0.80
2023-04-11T11:13:18.091Z,1.00
2023-04-11T11:15:49.437Z,0.90
2023-04-11T11:18:17.245Z,1.00
2023-04-11T11:20:44.798Z,1.10
2023-04-11T11:23:12.561Z,0.77
2023-04-11T11:25:40.257Z,0.93
2023-04-11T11:28:08.648Z,1.67
2023-04-11T11:30:37.110Z,0.90
2023-04-11T11:33:20.180Z,0.98
2023-04-11T11:35:57.085Z,1.70
2023-04-11T11:38:29.246Z,1.38
2023-04-11T11:40:57.437Z,1.00
2023-04-11T11:43:28.517Z,0.90
2023-04-11T11:46:14.335Z,0.85
2023-04-11T11:48:43.019Z,1.00
2023-04-11T11:51:10.716Z,1.40
2023-04-11T11:53:38.261Z,1.17
2023-04-11T11:56:15.721Z,0.90
2023-04-11T11:58:44.751Z,1.38
2023-04-11T12:01:16.147Z,1.00
2023-04-11T12:06:13.268Z,1.02
2023-04-11T12:08:45.660Z,1.10
2023-04-11T12:11:18.173Z,1.08
2023-04-11T12:16:14.619Z,1.00
2023-04-11T12:18:42.894Z,1.40
2023-04-11T12:21:10.470Z,1.23
2023-04-11T12:23:38.072Z,1.30
2023-04-11T12:26:06.008Z,1.02
2023-04-11T12:28:33.546Z,1.05
2023-04-11T12:31:01.361Z,1.02
2023-04-11T12:33:28.967Z,1.38
2023-04-11T12:35:56.896Z,1.02
2023-04-11T12:38:24.411Z,1.08
2023-04-11T12:41:00.335Z,1.30
2023-04-11T12:43:36.580Z,1.23
2023-04-11T12:46:04.205Z,1.10
2023-04-11T12:48:31.850Z,1.20
2023-04-11T12:50:59.624Z,1.30
2023-04-11T12:53:27.154Z,1.25
2023-04-11T12:55:54.709Z,1.10
2023-04-11T12:58:22.317Z,1.20
2023-04-11T13:00:49.835Z,1.10
2023-04-11T13:03:17.993Z,1.20
2023-04-11T13:05:45.676Z,1.27
2023-04-11T13:08:13.211Z,1.10
2023-04-11T13:10:41.754Z,1.27
2023-04-11T13:13:18.129Z,1.40
2023-04-11T13:15:46.542Z,1.08
2023-04-11T13:18:14.367Z,1.08
2023-04-11T13:20:42.538Z,1.25
2023-04-11T13:23:11.163Z,1.40
2023-04-11T13:25:39.042Z,1.20
2023-04-11T13:28:06.634Z,1.10
2023-04-11T13:30:34.260Z,1.20
2023-04-11T13:33:01.911Z,1.10
2023-04-11T13:35:29.601Z,1.17
2023-04-11T13:37:57.608Z,1.42
2023-04-11T13:40:25.250Z,1.38
2023-04-11T13:42:54.422Z,1.58
2023-04-11T13:45:22.026Z,1.20
2023-04-11T13:47:49.583Z,1.30
2023-04-11T13:50:17.253Z,1.40
2023-04-11T13:52:44.927Z,1.25
2023-04-11T13:55:12.481Z,1.33
2023-04-11T13:57:40.008Z,1.20
2023-04-11T14:00:11.600Z,1.00
2023-04-11T14:02:43.056Z,1.20
2023-04-11T14:05:14.129Z,1.10
2023-04-11T14:07:41.855Z,1.53
2023-04-11T14:10:09.795Z,1.00
2023-04-11T14:12:37.327Z,1.25
2023-04-11T14:15:05.720Z,1.55
2023-04-11T14:17:33.389Z,1.23
2023-04-11T14:20:01.126Z,1.17
2023-04-11T14:22:28.672Z,1.05
2023-04-11T14:24:56.345Z,1.20
2023-04-11T14:27:23.895Z,1.17
2023-04-11T14:29:51.409Z,0.80
2023-04-11T14:32:18.941Z,1.10
2023-04-11T14:34:46.481Z,1.00
2023-04-11T14:37:14.121Z,0.90
2023-04-11T14:39:41.749Z,1.30
2023-04-11T14:42:09.800Z,1.13
2023-04-11T14:44:40.690Z,1.08
2023-04-11T14:47:08.350Z,1.00
2023-04-11T14:49:36.036Z,1.58
2023-04-11T14:52:03.723Z,0.95
2023-04-11T14:54:31.299Z,1.00
2023-04-11T14:56:59.546Z,1.00
2023-04-11T14:59:27.158Z,1.02
2023-04-11T15:01:54.810Z,1.27
2023-04-11T15:04:22.675Z,1.00
2023-04-11T15:06:50.264Z,1.10
2023-04-11T15:09:20.081Z,0.98
2023-04-11T15:11:48.591Z,0.90
2023-04-11T15:14:16.199Z,1.02
2023-04-11T15:16:43.784Z,1.10
2023-04-11T15:19:11.344Z,1.08
2023-04-11T15:21:38.946Z,0.90
2023-04-11T15:24:07.408Z,1.10
2023-04-11T15:26:36.001Z,1.27
2023-04-11T15:29:03.992Z,1.10
2023-04-11T15:31:31.719Z,1.38
2023-04-11T15:34:03.792Z,1.25
2023-04-11T15:36:38.433Z,1.05
2023-04-11T15:39:06.137Z,1.40
2023-04-11T15:41:33.800Z,1.20
2023-04-11T15:44:01.475Z,0.90
2023-04-11T15:46:29.957Z,1.00
2023-04-11T15:48:57.701Z,1.08
2023-04-11T15:51:27.130Z,1.20
2023-04-11T15:53:55.044Z,1.05
2023-04-11T15:56:22.862Z,1.20
2023-04-11T15:58:50.418Z,1.17
2023-04-11T16:01:25.639Z,1.02
2023-04-11T16:03:54.385Z,0.98
2023-04-11T16:06:22.494Z,0.85
2023-04-11T16:08:50.883Z,0.73
2023-04-11T16:11:21.108Z,1.20
2023-04-11T16:13:48.907Z,1.20
2023-04-11T16:16:16.562Z,1.10
2023-04-11T16:18:44.217Z,1.05
2023-04-11T16:21:13.559Z,1.00
2023-04-11T16:23:41.157Z,1.10
2023-04-11T16:26:10.743Z,1.10
2023-04-11T16:28:38.280Z,1.40
2023-04-11T16:31:06.188Z,1.25
2023-04-11T16:33:34.012Z,0.90
2023-04-11T16:36:01.616Z,1.15
2023-04-11T16:38:29.201Z,1.17
2023-04-11T16:40:56.780Z,1.17
2023-04-11T16:43:24.308Z,1.10
2023-04-11T16:45:52.096Z,1.52
2023-04-11T16:48:19.606Z,1.50
2023-04-11T16:50:47.214Z,1.30
2023-04-11T16:53:14.769Z,1.10
2023-04-11T16:55:42.437Z,1.70
2023-04-11T16:58:11.356Z,1.30
2023-04-11T17:00:39.037Z,1.20
2023-04-11T17:03:07.087Z,1.02
2023-04-11T17:05:34.937Z,1.50
2023-04-11T17:08:02.495Z,0.93
2023-04-11T17:10:30.223Z,1.08
2023-04-11T17:12:58.700Z,1.20
2023-04-11T17:15:26.364Z,1.10
2023-04-11T17:17:53.927Z,1.40
2023-04-11T17:20:24.491Z,1.20
2023-04-11T17:22:52.192Z,1.50
2023-04-11T17:25:19.803Z,1.45
2023-04-11T17:27:47.456Z,0.98
2023-04-11T17:30:15.064Z,1.35
2023-04-11T17:32:42.714Z,1.35
2023-04-11T17:35:11.521Z,1.35
2023-04-11T17:37:39.620Z,1.60
2023-04-11T17:40:11.918Z,1.15
2023-04-11T17:42:40.142Z,1.35
2023-04-11T17:45:17.915Z,1.40
2023-04-11T17:47:47.269Z,1.40
2023-04-11T17:50:15.116Z,1.42
2023-04-11T17:52:43.774Z,1.15
2023-04-11T17:55:12.830Z,1.23
2023-04-11T17:57:40.489Z,1.30
2023-04-11T18:00:16.710Z,1.50
2023-04-11T18:02:48.174Z,1.85
2023-04-11T18:05:23.219Z,1.80
2023-04-11T18:07:54.102Z,1.60
2023-04-11T18:10:21.971Z,1.40
2023-04-11T18:12:51.245Z,1.55
2023-04-11T18:15:19.039Z,1.20
2023-04-11T18:17:46.699Z,1.27
2023-04-11T18:20:15.421Z,1.35
2023-04-11T18:22:44.378Z,1.20
2023-04-11T18:25:12.276Z,1.63
2023-04-11T18:27:40.425Z,1.83
2023-04-11T18:30:11.339Z,1.50
2023-04-11T18:32:43.870Z,1.95
2023-04-11T18:35:14.822Z,1.65
2023-04-11T18:37:42.806Z,1.80
2023-04-11T18:40:11.768Z,1.60
2023-04-11T18:42:39.773Z,1.50
2023-04-11T18:45:08.089Z,1.50
2023-04-11T18:47:35.864Z,1.40
2023-04-11T18:50:04.595Z,1.50
2023-04-11T18:52:32.914Z,1.40
2023-04-11T18:55:01.020Z,1.60
2023-04-11T18:57:32.689Z,1.63
2023-04-11T19:00:12.833Z,1.50
2023-04-11T19:02:42.327Z,1.35
2023-04-11T19:05:13.695Z,1.10
2023-04-11T19:07:42.212Z,1.40
2023-04-11T19:10:11.096Z,1.52
2023-04-11T19:12:38.875Z,1.73
2023-04-11T19:15:07.986Z,1.50
2023-04-11T19:17:36.880Z,1.50
2023-04-11T19:20:12.371Z,1.80
2023-04-11T19:22:40.776Z,1.60
2023-04-11T19:25:12.042Z,1.60
2023-04-11T19:27:42.729Z,1.92
2023-04-11T19:30:13.281Z,1.80
2023-04-11T19:32:43.236Z,1.90
2023-04-11T19:35:11.670Z,1.75
2023-04-11T19:37:39.649Z,1.60
2023-04-11T19:40:07.867Z,2.00
2023-04-11T19:42:39.758Z,1.75
2023-04-11T19:47:34.895Z,2.33
2023-04-11T19:50:02.593Z,1.90
2023-04-11T19:52:30.309Z,1.85
2023-04-11T19:54:57.924Z,1.88
2023-04-11T19:57:27.174Z,2.08
2023-04-11T19:59:54.784Z,2.42
2023-04-11T20:02:22.573Z,1.75
2023-04-11T20:04:50.516Z,2.00
2023-04-11T20:07:18.104Z,1.90
2023-04-11T20:09:46.331Z,1.83
2023-04-11T20:12:13.953Z,1.52
2023-04-11T20:14:41.458Z,1.70
2023-04-11T20:17:09.093Z,1.52
2023-04-11T20:19:37.655Z,1.40
2023-04-11T20:22:05.532Z,1.67
2023-04-11T20:24:33.201Z,1.90
2023-04-11T20:27:00.852Z,1.63
2023-04-11T20:29:32.315Z,1.55
2023-04-11T20:32:00.130Z,1.88
2023-04-11T20:34:27.712Z,1.77
2023-04-11T20:36:55.942Z,1.85
2023-04-11T20:39:23.716Z,1.63
2023-04-11T20:41:52.333Z,1.83
2023-04-11T20:44:23.514Z,1.60
2023-04-11T20:46:51.221Z,1.60
2023-04-11T20:49:18.807Z,1.65
2023-04-11T20:51:49.706Z,1.67
2023-04-11T20:54:17.303Z,1.90
2023-04-11T20:56:44.858Z,1.63
2023-04-11T20:59:12.516Z,1.50
2023-04-11T21:01:40.462Z,1.67
2023-04-11T21:04:09.675Z,2.28
2023-04-11T21:06:37.530Z,1.63
2023-04-11T21:09:05.717Z,2.08
2023-04-11T21:11:33.452Z,2.35
2023-04-11T21:14:01.049Z,2.13
2023-04-11T21:16:28.635Z,2.10
2023-04-11T21:18:56.614Z,2.17
2023-04-11T21:21:24.211Z,2.28
2023-04-11T21:23:51.921Z,1.90
2023-04-11T21:26:19.474Z,1.98
2023-04-11T21:28:48.026Z,1.80
2023-04-11T21:31:15.937Z,2.30
2023-04-11T21:33:46.021Z,1.70
2023-04-11T21:36:13.621Z,2.00
2023-04-11T21:38:41.521Z,2.13
2023-04-11T21:41:09.073Z,2.40
2023-04-11T21:43:37.833Z,2.00
2023-04-11T21:46:05.493Z,2.00
2023-04-11T21:48:33.207Z,1.70
2023-04-11T21:51:02.487Z,2.20
2023-04-11T21:53:31.119Z,2.08
2023-04-11T21:55:58.665Z,1.85
2023-04-11T21:58:29.506Z,1.65
2023-04-11T22:00:57.760Z,2.08
2023-04-11T22:03:26.555Z,1.85
2023-04-11T22:05:54.618Z,2.03
2023-04-11T22:08:22.582Z,2.33
2023-04-11T22:10:52.345Z,1.88
2023-04-11T22:13:20.325Z,1.58
2023-04-11T22:16:05.203Z,2.28
2023-04-11T22:18:46.499Z,1.95
2023-04-11T22:21:19.133Z,2.30
2023-04-11T22:23:48.461Z,2.10
2023-04-11T22:26:16.504Z,1.90
2023-04-11T22:28:45.394Z,2.03
2023-04-11T22:31:13.700Z,1.65
2023-04-11T22:33:41.375Z,1.90
2023-04-11T22:36:11.554Z,2.10
2023-04-11T22:38:39.180Z,2.10
2023-04-11T22:41:07.282Z,2.20
2023-04-11T22:43:34.876Z,2.08
2023-04-11T22:46:02.453Z,1.75
2023-04-11T22:48:30.104Z,1.63
2023-04-11T22:50:59.071Z,2.55
2023-04-11T22:53:26.776Z,2.15
2023-04-11T22:55:54.549Z,2.00
2023-04-11T22:58:22.095Z,2.00
2023-04-11T23:00:49.672Z,1.70
2023-04-11T23:03:18.383Z,1.70
2023-04-11T23:05:46.223Z,1.63
2023-04-11T23:08:14.100Z,2.00
2023-04-11T23:10:42.347Z,1.50
2023-04-11T23:13:14.118Z,1.60
2023-04-11T23:15:41.667Z,1.92
2023-04-11T23:18:09.416Z,1.95
2023-04-11T23:20:37.136Z,1.83
2023-04-11T23:23:05.483Z,1.70
2023-04-11T23:25:33.218Z,1.55
2023-04-11T23:28:00.828Z,1.50
2023-04-11T23:30:28.566Z,1.70
2023-04-11T23:32:56.153Z,1.50
2023-04-11T23:35:23.767Z,1.85
2023-04-11T23:37:51.846Z,2.00
2023-04-11T23:40:19.547Z,1.73
2023-04-11T23:42:47.088Z,1.70
2023-04-11T23:45:15.112Z,1.60
2023-04-11T23:47:42.844Z,1.80
2023-04-11T23:50:12.069Z,1.70
2023-04-11T23:52:39.680Z,1.35
2023-04-11T23:55:07.625Z,1.73
2023-04-11T23:57:35.506Z,2.00
